createdAt,value
2023-04-08T00:00:25.928Z,9.278312
2023-04-08T00:01:25.903Z,9.278237
2023-04-08T00:02:26.020Z,9.278212
2023-04-08T00:03:25.962Z,9.278296
2023-04-08T00:04:26.028Z,9.278344
2023-04-08T00:05:25.868Z,9.278358
2023-04-08T00:06:25.988Z,9.278311
2023-04-08T00:07:25.868Z,9.278303
2023-04-08T00:08:25.799Z,9.278279
2023-04-08T00:09:25.775Z,9.278225
2023-04-08T00:10:25.757Z,9.278320
2023-04-08T00:11:25.797Z,9.278333
2023-04-08T00:12:25.763Z,9.278408
2023-04-08T00:13:25.712Z,9.278321
2023-04-08T00:14:25.679Z,9.278404
2023-04-08T00:15:25.669Z,9.278319
2023-04-08T00:16:25.673Z,9.278177
2023-04-08T00:17:25.711Z,9.278287
2023-04-08T00:18:25.618Z,9.278249
2023-04-08T00:19:25.605Z,9.278270
2023-04-08T00:20:25.578Z,9.278247
2023-04-08T00:21:25.616Z,9.278285
2023-04-08T00:22:25.585Z,9.278253
2023-04-08T00:23:25.549Z,9.278273
2023-04-08T00:24:25.528Z,9.278290
2023-04-08T00:25:25.826Z,9.278167
2023-04-08T00:26:26.509Z,9.278162
2023-04-08T00:27:25.621Z,9.278206
2023-04-08T00:28:25.451Z,9.278337
2023-04-08T00:29:25.429Z,9.278273
2023-04-08T00:30:25.429Z,9.278396
2023-04-08T00:31:25.420Z,9.278424
2023-04-08T00:32:25.430Z,9.278426
2023-04-08T00:33:25.353Z,9.278320
2023-04-08T00:34:25.349Z,9.278330
2023-04-08T00:35:25.385Z,9.278291
2023-04-08T00:36:25.352Z,9.278278
2023-04-08T00:37:25.320Z,9.278346
2023-04-08T00:38:25.287Z,9.278385
2023-04-08T00:39:25.257Z,9.278326
2023-04-08T00:40:25.238Z,9.278413
2023-04-08T00:41:25.240Z,9.278451
2023-04-08T00:42:25.213Z,9.278344
2023-04-08T00:43:25.232Z,9.278247
2023-04-08T00:44:25.228Z,9.278272
2023-04-08T00:45:25.166Z,9.278313
2023-04-08T00:46:25.193Z,9.278275
2023-04-08T00:47:25.174Z,9.278194
2023-04-08T00:48:25.141Z,9.278144
2023-04-08T00:49:25.090Z,9.278227
2023-04-08T00:50:25.062Z,9.278343
2023-04-08T00:51:25.053Z,9.278285
2023-04-08T00:52:25.033Z,9.278287
2023-04-08T00:53:25.734Z,9.278317
2023-04-08T00:54:25.013Z,9.278317
2023-04-08T00:55:24.983Z,9.278319
2023-04-08T00:56:24.974Z,9.278234
2023-04-08T00:57:24.945Z,9.278326
2023-04-08T00:58:24.952Z,9.278374
2023-04-08T00:59:24.914Z,9.278545
2023-04-08T01:00:24.903Z,9.278237
2023-04-08T01:01:24.930Z,9.278304
2023-04-08T01:02:25.092Z,9.278275
2023-04-08T01:03:25.172Z,9.278291
2023-04-08T01:04:24.998Z,9.278297
2023-04-08T01:05:24.812Z,9.278275
2023-04-08T01:06:24.795Z,9.278269
2023-04-08T01:07:24.773Z,9.278176
2023-04-08T01:08:24.810Z,9.278208
2023-04-08T01:09:24.758Z,9.278158
2023-04-08T01:10:24.725Z,9.278249
2023-04-08T01:11:24.743Z,9.278196
2023-04-08T01:12:25.700Z,9.278159
2023-04-08T01:13:24.713Z,9.278276
2023-04-08T01:14:24.655Z,9.278186
2023-04-08T01:15:24.649Z,9.278299
2023-04-08T01:16:24.694Z,9.278351
2023-04-08T01:17:24.661Z,9.278451
2023-04-08T01:18:24.673Z,9.278349
2023-04-08T01:19:25.587Z,9.278383
2023-04-08T01:20:24.569Z,9.278349
2023-04-08T01:21:24.569Z,9.278387
2023-04-08T01:22:24.549Z,9.278341
2023-04-08T01:23:24.565Z,9.278322
2023-04-08T01:24:24.522Z,9.278487
2023-04-08T01:25:24.483Z,9.278446
2023-04-08T01:26:24.473Z,9.278549
2023-04-08T01:27:24.446Z,9.278429
2023-04-08T01:28:24.456Z,9.278263
2023-04-08T01:29:24.411Z,9.278271
2023-04-08T01:30:24.399Z,9.278361
2023-04-08T01:31:24.456Z,9.278397
2023-04-08T01:32:24.391Z,9.278232
2023-04-08T01:33:24.373Z,9.278185
2023-04-08T01:34:24.350Z,9.278198
2023-04-08T01:35:24.355Z,9.278212
2023-04-08T01:36:24.300Z,9.278257
2023-04-08T01:37:24.283Z,9.278322
2023-04-08T01:38:24.302Z,9.278306
2023-04-08T01:39:24.250Z,9.278291
2023-04-08T01:40:24.238Z,9.278212
2023-04-08T01:41:24.226Z,9.278316
2023-04-08T01:42:24.201Z,9.278489
2023-04-08T01:43:24.230Z,9.278467
2023-04-08T01:44:24.173Z,9.278336
2023-04-08T01:45:24.189Z,9.278354
2023-04-08T01:46:24.202Z,9.278353
2023-04-08T01:47:24.118Z,9.278394
2023-04-08T01:48:24.115Z,9.278237
2023-04-08T01:49:24.082Z,9.278256
2023-04-08T01:50:24.078Z,9.278322
2023-04-08T01:51:24.049Z,9.278531
2023-04-08T01:52:24.016Z,9.278481
2023-04-08T01:53:25.031Z,9.278371
2023-04-08T01:54:24.986Z,9.278455
2023-04-08T01:55:23.972Z,9.278639
2023-04-08T01:56:23.957Z,9.278500
2023-04-08T01:57:23.940Z,9.278588
2023-04-08T01:58:23.993Z,9.278597
2023-04-08T01:59:23.912Z,9.278371
2023-04-08T02:00:23.919Z,9.278263
2023-04-08T02:01:23.902Z,9.278118
2023-04-08T02:02:24.047Z,9.278254
2023-04-08T02:03:24.142Z,9.278377
2023-04-08T02:04:23.903Z,9.278532
2023-04-08T02:05:23.797Z,9.278477
2023-04-08T02:06:23.782Z,9.277846
2023-04-08T02:07:23.764Z,9.277240
2023-04-08T02:08:23.789Z,9.277914
2023-04-08T02:09:23.736Z,9.278692
2023-04-08T02:10:23.721Z,9.278831
2023-04-08T02:11:23.706Z,9.279001
2023-04-08T02:12:23.677Z,9.278346
2023-04-08T02:13:23.696Z,9.278103
2023-04-08T02:14:23.650Z,9.278028
2023-04-08T02:15:23.630Z,9.277965
2023-04-08T02:16:23.762Z,9.277922
2023-04-08T02:17:23.593Z,9.278022
2023-04-08T02:18:23.623Z,9.277913
2023-04-08T02:19:23.577Z,9.278079
2023-04-08T02:20:23.550Z,9.278202
2023-04-08T02:21:23.527Z,9.278094
2023-04-08T02:22:23.506Z,9.278137
2023-04-08T02:23:23.547Z,9.278193
2023-04-08T02:24:23.482Z,9.278232
2023-04-08T02:25:23.462Z,9.278237
2023-04-08T02:26:23.451Z,9.278205
2023-04-08T02:27:23.422Z,9.278229
2023-04-08T02:28:23.435Z,9.278211
2023-04-08T02:29:23.380Z,9.278143
2023-04-08T02:30:23.487Z,9.278109
2023-04-08T02:31:23.384Z,9.278130
2023-04-08T02:32:23.349Z,9.278152
2023-04-08T02:33:23.389Z,9.278121
2023-04-08T02:34:23.316Z,9.278110
2023-04-08T02:35:23.327Z,9.278283
2023-04-08T02:36:23.263Z,9.278312
2023-04-08T02:37:23.243Z,9.278354
2023-04-08T02:38:23.277Z,9.278242
2023-04-08T02:39:23.211Z,9.278092
2023-04-08T02:40:23.208Z,9.278229
2023-04-08T02:41:23.185Z,9.278318
2023-04-08T02:42:23.158Z,9.278233
2023-04-08T02:43:23.183Z,9.278173
2023-04-08T02:44:23.142Z,9.278206
2023-04-08T02:45:23.121Z,9.278264
2023-04-08T02:46:23.174Z,9.278329
2023-04-08T02:47:23.132Z,9.278226
2023-04-08T02:48:23.102Z,9.278242
2023-04-08T02:49:23.059Z,9.278211
2023-04-08T02:50:23.026Z,9.278172
2023-04-08T02:51:23.017Z,9.278300
2023-04-08T02:52:23.012Z,9.278396
2023-04-08T02:53:23.001Z,9.278102
2023-04-08T02:54:22.959Z,9.278181
2023-04-08T02:55:22.951Z,9.278079
2023-04-08T02:56:22.945Z,9.278066
2023-04-08T02:57:22.927Z,9.278235
2023-04-08T02:58:22.934Z,9.278289
2023-04-08T02:59:22.896Z,9.278380
2023-04-08T03:00:22.897Z,9.278449
2023-04-08T03:01:22.919Z,9.278348
2023-04-08T03:02:22.998Z,9.278383
2023-04-08T03:03:22.961Z,9.278416
2023-04-08T03:04:22.792Z,9.278096
2023-04-08T03:05:22.757Z,9.278169
2023-04-08T03:06:22.788Z,9.278245
2023-04-08T03:07:22.744Z,9.278308
2023-04-08T03:08:22.749Z,9.278202
2023-04-08T03:09:22.693Z,9.278205
2023-04-08T03:10:22.678Z,9.278269
2023-04-08T03:11:22.680Z,9.278345
2023-04-08T03:12:22.656Z,9.278152
2023-04-08T03:13:22.666Z,9.278121
2023-04-08T03:14:22.647Z,9.278193
2023-04-08T03:15:22.597Z,9.278188
2023-04-08T03:16:22.645Z,9.278101
2023-04-08T03:17:22.627Z,9.278134
2023-04-08T03:18:22.605Z,9.278272
2023-04-08T03:19:22.537Z,9.278280
2023-04-08T03:20:22.515Z,9.278221
2023-04-08T03:21:22.496Z,9.278340
2023-04-08T03:22:23.481Z,9.278294
2023-04-08T03:23:22.488Z,9.278275
2023-04-08T03:24:22.452Z,9.278300
2023-04-08T03:25:22.437Z,9.278114
2023-04-08T03:26:22.402Z,9.278232
2023-04-08T03:27:22.417Z,9.278094
2023-04-08T03:28:22.405Z,9.278216
2023-04-08T03:29:22.353Z,9.278180
2023-04-08T03:30:22.348Z,9.278107
2023-04-08T03:31:22.357Z,9.278148
2023-04-08T03:32:22.357Z,9.278181
2023-04-08T03:33:22.321Z,9.278268
2023-04-08T03:34:22.278Z,9.278204
2023-04-08T03:35:22.259Z,9.278240
2023-04-08T03:36:22.264Z,9.278205
2023-04-08T03:37:22.219Z,9.278261
2023-04-08T03:38:22.250Z,9.278350
2023-04-08T03:39:22.183Z,9.278297
2023-04-08T03:40:22.168Z,9.278247
2023-04-08T03:41:22.162Z,9.278208
2023-04-08T03:42:22.126Z,9.278248
2023-04-08T03:43:22.174Z,9.278365
2023-04-08T03:44:22.107Z,9.278337
2023-04-08T03:45:22.076Z,9.278268
2023-04-08T03:46:22.082Z,9.278145
2023-04-08T03:47:22.092Z,9.278348
2023-04-08T03:48:22.079Z,9.278340
2023-04-08T03:49:53.886Z,9.278223
2023-04-08T03:50:21.988Z,9.278232
2023-04-08T03:51:22.003Z,9.278193
2023-04-08T03:52:21.964Z,9.278185
2023-04-08T03:53:21.978Z,9.278219
2023-04-08T03:54:22.048Z,9.278296
2023-04-08T03:55:21.936Z,9.278295
2023-04-08T03:56:21.925Z,9.278235
2023-04-08T03:57:21.878Z,9.278228
2023-04-08T03:58:21.890Z,9.278248
2023-04-08T03:59:21.837Z,9.278351
2023-04-08T04:00:21.845Z,9.278246
2023-04-08T04:01:21.806Z,9.278257
2023-04-08T04:02:21.909Z,9.278214
2023-04-08T04:03:21.974Z,9.278239
2023-04-08T04:04:21.957Z,9.278214
2023-04-08T04:05:21.737Z,9.278199
2023-04-08T04:06:21.726Z,9.278203
2023-04-08T04:07:21.723Z,9.278350
2023-04-08T04:08:21.713Z,9.278405
2023-04-08T04:09:21.667Z,9.278496
2023-04-08T04:10:21.846Z,9.278382
2023-04-08T04:11:21.654Z,9.278335
2023-04-08T04:12:21.640Z,9.278301
2023-04-08T04:13:21.596Z,9.278239
2023-04-08T04:14:21.633Z,9.278223
2023-04-08T04:15:21.565Z,9.278299
2023-04-08T04:16:21.646Z,9.278354
2023-04-08T04:17:21.554Z,9.278314
2023-04-08T04:18:21.578Z,9.278303
2023-04-08T04:19:21.500Z,9.278246
2023-04-08T04:20:21.478Z,9.278296
2023-04-08T04:21:21.469Z,9.278266
2023-04-08T04:22:21.448Z,9.278269
2023-04-08T04:23:21.446Z,9.278275
2023-04-08T04:24:21.436Z,9.278325
2023-04-08T04:25:21.391Z,9.278285
2023-04-08T04:26:21.379Z,9.278204
2023-04-08T04:27:21.396Z,9.278255
2023-04-08T04:28:21.351Z,9.278292
2023-04-08T04:29:21.376Z,9.278366
2023-04-08T04:30:21.316Z,9.278420
2023-04-08T04:31:21.291Z,9.278411
2023-04-08T04:32:21.302Z,9.278296
2023-04-08T04:33:21.254Z,9.278374
2023-04-08T04:34:21.279Z,9.278277
2023-04-08T04:35:21.295Z,9.278289
2023-04-08T04:36:21.422Z,9.278336
2023-04-08T04:37:21.190Z,9.278386
2023-04-08T04:38:21.168Z,9.278358
2023-04-08T04:39:21.187Z,9.278225
2023-04-08T04:40:21.137Z,9.278313
2023-04-08T04:41:21.136Z,9.278402
2023-04-08T04:42:21.105Z,9.278339
2023-04-08T04:43:21.122Z,9.278233
2023-04-08T04:44:21.110Z,9.278189
2023-04-08T04:45:21.063Z,9.278207
2023-04-08T04:46:21.060Z,9.278375
2023-04-08T04:47:21.041Z,9.278297
2023-04-08T04:48:21.001Z,9.278329
2023-04-08T04:49:21.014Z,9.278307
2023-04-08T04:50:20.981Z,9.278272
2023-04-08T04:51:20.949Z,9.278300
2023-04-08T04:52:20.940Z,9.278310
2023-04-08T04:53:20.916Z,9.278342
2023-04-08T04:54:20.924Z,9.278331
2023-04-08T04:55:20.880Z,9.278288
2023-04-08T04:56:20.865Z,9.278307
2023-04-08T04:57:20.852Z,9.278275
2023-04-08T04:58:20.838Z,9.278319
2023-04-08T04:59:21.852Z,9.278327
2023-04-08T05:00:20.829Z,9.278290
2023-04-08T05:01:20.790Z,9.278314
2023-04-08T05:02:20.832Z,9.278326
2023-04-08T05:03:20.756Z,9.278292
2023-04-08T05:04:20.761Z,9.278230
2023-04-08T05:05:20.811Z,9.278345
2023-04-08T05:06:20.718Z,9.278357
2023-04-08T05:07:20.690Z,9.278335
2023-04-08T05:08:20.675Z,9.278241
2023-04-08T05:09:20.717Z,9.278219
2023-04-08T05:10:20.645Z,9.278260
2023-04-08T05:11:20.629Z,9.278247
2023-04-08T05:12:20.674Z,9.278226
2023-04-08T05:13:20.597Z,9.278278
2023-04-08T05:14:20.604Z,9.278310
2023-04-08T05:15:20.567Z,9.278312
2023-04-08T05:16:20.580Z,9.278260
2023-04-08T05:17:20.526Z,9.278296
2023-04-08T05:18:20.500Z,9.278342
2023-04-08T05:19:20.516Z,9.278328
2023-04-08T05:20:20.478Z,9.278283
2023-04-08T05:21:20.447Z,9.278310
2023-04-08T05:22:20.440Z,9.278255
2023-04-08T05:23:20.422Z,9.278193
2023-04-08T05:24:20.496Z,9.278181
2023-04-08T05:25:20.388Z,9.278209
2023-04-08T05:26:20.436Z,9.278310
2023-04-08T05:27:20.354Z,9.278250
2023-04-08T05:28:20.374Z,9.278296
2023-04-08T05:29:20.389Z,9.278164
2023-04-08T05:30:20.306Z,9.278144
2023-04-08T05:31:20.311Z,9.278126
2023-04-08T05:32:20.295Z,9.278184
2023-04-08T05:33:20.267Z,9.278159
2023-04-08T05:34:20.267Z,9.278289
2023-04-08T05:35:20.238Z,9.278321
2023-04-08T05:36:20.198Z,9.278249
2023-04-08T05:37:20.192Z,9.278251
2023-04-08T05:38:20.166Z,9.278204
2023-04-08T05:39:20.179Z,9.278274
2023-04-08T05:40:20.147Z,9.278328
2023-04-08T05:41:20.125Z,9.278296
2023-04-08T05:42:20.102Z,9.278193
2023-04-08T05:43:20.092Z,9.278212
2023-04-08T05:44:20.106Z,9.278332
2023-04-08T05:45:20.076Z,9.278267
2023-04-08T05:46:20.100Z,9.278324
2023-04-08T05:47:20.039Z,9.278251
2023-04-08T05:48:20.015Z,9.278240
2023-04-08T05:49:20.029Z,9.278278
2023-04-08T05:50:19.989Z,9.278323
2023-04-08T05:51:19.948Z,9.278324
2023-04-08T05:52:19.945Z,9.278176
2023-04-08T05:53:19.929Z,9.278183
2023-04-08T05:54:19.933Z,9.278163
2023-04-08T05:55:19.885Z,9.278172
2023-04-08T05:56:19.872Z,9.278049
2023-04-08T05:57:19.846Z,9.278153
2023-04-08T05:58:19.838Z,9.278228
2023-04-08T05:59:19.858Z,9.278242
2023-04-08T06:00:19.821Z,9.278225
2023-04-08T06:01:19.773Z,9.278314
2023-04-08T06:02:19.858Z,9.278334
2023-04-08T06:03:20.908Z,9.278274
2023-04-08T06:04:20.852Z,9.278341
2023-04-08T06:05:19.721Z,9.278338
2023-04-08T06:06:19.705Z,9.278395
2023-04-08T06:07:19.693Z,9.278358
2023-04-08T06:08:19.672Z,9.278395
2023-04-08T06:09:19.687Z,9.278361
2023-04-08T06:10:19.625Z,9.278354
2023-04-08T06:11:19.885Z,9.278397
2023-04-08T06:12:19.584Z,9.278398
2023-04-08T06:13:19.570Z,9.278372
2023-04-08T06:14:19.576Z,9.278372
2023-04-08T06:15:19.537Z,9.278352
2023-04-08T06:16:21.088Z,9.278384
2023-04-08T06:17:20.716Z,9.278410
2023-04-08T06:18:19.494Z,9.278424
2023-04-08T06:19:19.560Z,9.278374
2023-04-08T06:20:19.464Z,9.278339
2023-04-08T06:21:19.429Z,9.278347
2023-04-08T06:22:19.443Z,9.278386
2023-04-08T06:23:19.430Z,9.278405
2023-04-08T06:24:19.440Z,9.278420
2023-04-08T06:25:19.371Z,9.278330
2023-04-08T06:26:19.412Z,9.278324
2023-04-08T06:27:19.392Z,9.278275
2023-04-08T06:28:19.345Z,9.278332
2023-04-08T06:29:20.323Z,9.278297
2023-04-08T06:30:19.283Z,9.278306
2023-04-08T06:31:19.320Z,9.278321
2023-04-08T06:32:19.330Z,9.278350
2023-04-08T06:33:19.250Z,9.278316
2023-04-08T06:34:19.264Z,9.278376
2023-04-08T06:35:19.243Z,9.278355
2023-04-08T06:36:19.196Z,9.278296
2023-04-08T06:37:19.168Z,9.278329
2023-04-08T06:38:19.144Z,9.278311
2023-04-08T06:39:19.132Z,9.278196
2023-04-08T06:40:19.144Z,9.278227
2023-04-08T06:41:19.096Z,9.278407
2023-04-08T06:42:19.899Z,9.278401
2023-04-08T06:43:19.056Z,9.278445
2023-04-08T06:44:19.087Z,9.278394
2023-04-08T06:45:19.059Z,9.278323
2023-04-08T06:46:19.092Z,9.278351
2023-04-08T06:47:18.987Z,9.278553
2023-04-08T06:48:18.965Z,9.278377
2023-04-08T06:49:18.961Z,9.278287
2023-04-08T06:50:18.974Z,9.278253
2023-04-08T06:51:18.932Z,9.278313
2023-04-08T06:52:18.934Z,9.278215
2023-04-08T06:53:19.920Z,9.278314
2023-04-08T06:54:18.894Z,9.278289
2023-04-08T06:55:18.886Z,9.278357
2023-04-08T06:56:18.839Z,9.278341
2023-04-08T06:57:18.817Z,9.278422
2023-04-08T06:58:18.910Z,9.278309
2023-04-08T06:59:18.784Z,9.278287
2023-04-08T07:00:18.811Z,9.278408
2023-04-08T07:01:18.806Z,9.278421
2023-04-08T07:02:18.828Z,9.278279
2023-04-08T07:03:18.795Z,9.278239
2023-04-08T07:04:18.833Z,9.278294
2023-04-08T07:05:18.725Z,9.278265
2023-04-08T07:06:18.681Z,9.278481
2023-04-08T07:07:18.670Z,9.278467
2023-04-08T07:08:18.650Z,9.278425
2023-04-08T07:09:18.622Z,9.278387
2023-04-08T07:10:18.643Z,9.278320
2023-04-08T07:11:18.599Z,9.278366
2023-04-08T07:12:18.671Z,9.278459
2023-04-08T07:13:18.566Z,9.278286
2023-04-08T07:14:18.539Z,9.278251
2023-04-08T07:15:18.548Z,9.278345
2023-04-08T07:16:18.570Z,9.278434
2023-04-08T07:17:18.481Z,9.278320
2023-04-08T07:18:18.482Z,9.278297
2023-04-08T07:19:18.459Z,9.278324
2023-04-08T07:20:18.476Z,9.278397
2023-04-08T07:21:18.420Z,9.278428
2023-04-08T07:22:18.458Z,9.278359
2023-04-08T07:23:18.386Z,9.278338
2023-04-08T07:24:18.372Z,9.278370
2023-04-08T07:25:18.380Z,9.278302
2023-04-08T07:26:18.337Z,9.278511
2023-04-08T07:27:19.317Z,9.278509
2023-04-08T07:28:18.298Z,9.278436
2023-04-08T07:29:18.358Z,9.278401
2023-04-08T07:30:18.307Z,9.278361
2023-04-08T07:31:18.286Z,9.278401
2023-04-08T07:32:18.232Z,9.278296
2023-04-08T07:33:18.240Z,9.278390
2023-04-08T07:34:18.198Z,9.278360
2023-04-08T07:35:18.264Z,9.278337
2023-04-08T07:36:18.151Z,9.278372
2023-04-08T07:37:18.162Z,9.278399
2023-04-08T07:38:18.126Z,9.278371
2023-04-08T07:39:18.131Z,9.278469
2023-04-08T07:40:18.123Z,9.278413
2023-04-08T07:41:18.077Z,9.278361
2023-04-08T07:42:18.046Z,9.278331
2023-04-08T07:43:18.047Z,9.278234
2023-04-08T07:44:18.025Z,9.278358
2023-04-08T07:45:18.030Z,9.278314
2023-04-08T07:46:18.005Z,9.278380
2023-04-08T07:47:17.976Z,9.278339
2023-04-08T07:48:17.963Z,9.278256
2023-04-08T07:49:17.993Z,9.278249
2023-04-08T07:50:17.950Z,9.278389
2023-04-08T07:51:17.913Z,9.278195
2023-04-08T07:52:17.900Z,9.278353
2023-04-08T07:53:17.877Z,9.278431
2023-04-08T07:54:17.875Z,9.278420
2023-04-08T07:55:17.880Z,9.278400
2023-04-08T07:56:17.832Z,9.278323
2023-04-08T07:57:17.807Z,9.278275
2023-04-08T07:58:17.788Z,9.278399
2023-04-08T07:59:17.762Z,9.278362
2023-04-08T08:00:18.043Z,9.278183
2023-04-08T08:01:17.755Z,9.278232
2023-04-08T08:02:17.853Z,9.278201
2023-04-08T08:03:17.782Z,9.278415
2023-04-08T08:04:17.789Z,9.278427
2023-04-08T08:05:17.791Z,9.278216
2023-04-08T08:06:17.684Z,9.278269
2023-04-08T08:07:17.648Z,9.278196
2023-04-08T08:08:17.634Z,9.278356
2023-04-08T08:09:17.615Z,9.278304
2023-04-08T08:10:17.617Z,9.278278
2023-04-08T08:11:17.577Z,9.278291
2023-04-08T08:12:17.564Z,9.278285
2023-04-08T08:13:17.541Z,9.278292
2023-04-08T08:14:17.527Z,9.278237
2023-04-08T08:15:17.547Z,9.278262
2023-04-08T08:16:17.536Z,9.278233
2023-04-08T08:17:17.471Z,9.278231
2023-04-08T08:18:17.490Z,9.278241
2023-04-08T08:19:17.440Z,9.278243
2023-04-08T08:20:17.453Z,9.278275
2023-04-08T08:21:17.437Z,9.278056
2023-04-08T08:22:17.395Z,9.278234
2023-04-08T08:23:17.367Z,9.278202
2023-04-08T08:24:17.351Z,9.278327
2023-04-08T08:25:17.364Z,9.278388
2023-04-08T08:26:17.332Z,9.278434
2023-04-08T08:27:17.300Z,9.278525
2023-04-08T08:28:17.300Z,9.278323
2023-04-08T08:29:17.257Z,9.278211
2023-04-08T08:30:17.299Z,9.278193
2023-04-08T08:31:17.262Z,9.278314
2023-04-08T08:32:17.218Z,9.278472
2023-04-08T08:33:17.209Z,9.278256
2023-04-08T08:34:17.191Z,9.278096
2023-04-08T08:35:17.199Z,9.278289
2023-04-08T08:36:17.220Z,9.278378
2023-04-08T08:37:17.151Z,9.278389
2023-04-08T08:38:17.183Z,9.278199
2023-04-08T08:39:17.102Z,9.278266
2023-04-08T08:40:17.118Z,9.278340
2023-04-08T08:41:17.068Z,9.278382
2023-04-08T08:42:17.085Z,9.278319
2023-04-08T08:43:17.030Z,9.278359
2023-04-08T08:44:17.025Z,9.278292
2023-04-08T08:45:17.032Z,9.278266
2023-04-08T08:46:17.036Z,9.278290
2023-04-08T08:47:16.968Z,9.278316
2023-04-08T08:48:16.948Z,9.278359
2023-04-08T08:49:16.941Z,9.278253
2023-04-08T08:50:16.948Z,9.278326
2023-04-08T08:51:16.893Z,9.278231
2023-04-08T08:52:16.880Z,9.278232
2023-04-08T08:53:16.851Z,9.278222
2023-04-08T08:54:16.839Z,9.278305
2023-04-08T08:55:36.264Z,9.278335
2023-04-08T08:56:19.226Z,9.278269
2023-04-08T08:57:16.832Z,9.278343
2023-04-08T08:58:16.766Z,9.278314
2023-04-08T08:59:16.747Z,9.278358
2023-04-08T09:00:16.780Z,9.278394
2023-04-08T09:01:16.716Z,9.278400
2023-04-08T09:02:16.771Z,9.278270
2023-04-08T09:03:17.042Z,9.278283
2023-04-08T09:04:17.079Z,9.278435
2023-04-08T09:05:17.015Z,9.278272
2023-04-08T09:06:16.630Z,9.278296
2023-04-08T09:07:16.622Z,9.278252
2023-04-08T09:08:16.670Z,9.278067
2023-04-08T09:09:16.586Z,9.278381
2023-04-08T09:10:16.603Z,9.278297
2023-04-08T09:11:16.625Z,9.278482
2023-04-08T09:12:18.019Z,9.278362
2023-04-08T09:13:17.521Z,9.278182
2023-04-08T09:14:16.491Z,9.278228
2023-04-08T09:15:16.516Z,9.278307
2023-04-08T09:16:16.537Z,9.278250
2023-04-08T09:17:16.436Z,9.278361
2023-04-08T09:18:17.849Z,9.278458
2023-04-08T09:19:16.403Z,9.278203
2023-04-08T09:20:16.421Z,9.278393
2023-04-08T09:21:16.368Z,9.278414
2023-04-08T09:22:16.371Z,9.278337
2023-04-08T09:23:16.333Z,9.278352
2023-04-08T09:24:17.840Z,9.278240
2023-04-08T09:25:17.334Z,9.278277
2023-04-08T09:26:16.378Z,9.278081
2023-04-08T09:27:16.270Z,9.278129
2023-04-08T09:28:16.259Z,9.278269
2023-04-08T09:29:25.961Z,9.278259
2023-04-08T09:30:18.266Z,9.278250
2023-04-08T09:31:16.224Z,9.278333
2023-04-08T09:32:16.198Z,9.278321
2023-04-08T09:33:16.176Z,9.278419
2023-04-08T09:34:16.149Z,9.278353
2023-04-08T09:35:16.186Z,9.278402
2023-04-08T09:36:16.138Z,9.278268
2023-04-08T09:37:16.122Z,9.278332
2023-04-08T09:38:17.096Z,9.278417
2023-04-08T09:39:16.100Z,9.278241
2023-04-08T09:40:16.052Z,9.278230
2023-04-08T09:41:16.067Z,9.278333
2023-04-08T09:42:16.045Z,9.278457
2023-04-08T09:43:16.001Z,9.278298
2023-04-08T09:44:16.001Z,9.278259
2023-04-08T09:45:16.025Z,9.278235
2023-04-08T09:46:16.169Z,9.278397
2023-04-08T09:47:15.938Z,9.278388
2023-04-08T09:48:16.610Z,9.278383
2023-04-08T09:49:16.924Z,9.278332
2023-04-08T09:50:15.904Z,9.278265
2023-04-08T09:51:49.476Z,9.278110
2023-04-08T09:52:15.915Z,9.278145
2023-04-08T09:53:15.834Z,9.278253
2023-04-08T09:54:15.829Z,9.278261
2023-04-08T09:55:15.812Z,9.278325
2023-04-08T09:56:15.824Z,9.278326
2023-04-08T09:57:15.770Z,9.278304
2023-04-08T09:58:15.760Z,9.278040
2023-04-08T09:59:15.744Z,9.278251
2023-04-08T10:00:15.726Z,9.278375
2023-04-08T10:01:15.764Z,9.278315
2023-04-08T10:02:15.784Z,9.278435
2023-04-08T10:03:15.937Z,9.278182
2023-04-08T10:04:15.704Z,9.278218
2023-04-08T10:05:15.651Z,9.278275
2023-04-08T10:06:15.669Z,9.278388
2023-04-08T10:07:15.618Z,9.278316
2023-04-08T10:08:15.585Z,9.278234
2023-04-08T10:09:15.569Z,9.278275
2023-04-08T10:10:15.584Z,9.278235
2023-04-08T10:11:15.594Z,9.278352
2023-04-08T10:12:15.532Z,9.278299
2023-04-08T10:13:15.508Z,9.278585
2023-04-08T10:14:15.498Z,9.278583
2023-04-08T10:15:15.474Z,9.278508
2023-04-08T10:16:15.516Z,9.278652
2023-04-08T10:17:15.438Z,9.278523
2023-04-08T10:18:15.421Z,9.278496
2023-04-08T10:19:15.780Z,9.278494
2023-04-08T10:20:15.400Z,9.278562
2023-04-08T10:21:15.408Z,9.278521
2023-04-08T10:22:15.355Z,9.278474
2023-04-08T10:23:15.347Z,9.278571
2023-04-08T10:24:15.338Z,9.278545
2023-04-08T10:25:15.329Z,9.278530
2023-04-08T10:26:15.316Z,9.278494
2023-04-08T10:27:15.260Z,9.278613
2023-04-08T10:28:15.297Z,9.278406
2023-04-08T10:29:15.230Z,9.278316
2023-04-08T10:30:15.219Z,9.278378
2023-04-08T10:31:16.297Z,9.278462
2023-04-08T10:32:15.179Z,9.278477
2023-04-08T10:33:15.182Z,9.278524
2023-04-08T10:34:15.145Z,9.278458
2023-04-08T10:35:15.124Z,9.278319
2023-04-08T10:36:15.249Z,9.278269
2023-04-08T10:37:15.103Z,9.278285
2023-04-08T10:38:15.077Z,9.278301
2023-04-08T10:39:15.101Z,9.278308
2023-04-08T10:40:15.042Z,9.278359
2023-04-08T10:41:15.051Z,9.278447
2023-04-08T10:42:15.007Z,9.278349
2023-04-08T10:43:14.990Z,9.278291
2023-04-08T10:44:15.043Z,9.278307
2023-04-08T10:45:14.971Z,9.278339
2023-04-08T10:46:15.003Z,9.278337
2023-04-08T10:47:14.943Z,9.278365
2023-04-08T10:48:14.911Z,9.278332
2023-04-08T10:49:14.893Z,9.278317
2023-04-08T10:50:14.901Z,9.278292
2023-04-08T10:51:14.904Z,9.278297
2023-04-08T10:52:14.859Z,9.278334
2023-04-08T10:53:14.865Z,9.278316
2023-04-08T10:54:14.817Z,9.278343
2023-04-08T10:55:14.795Z,9.278371
2023-04-08T10:56:14.823Z,9.278350
2023-04-08T10:57:14.754Z,9.278454
2023-04-08T10:58:14.740Z,9.278323
2023-04-08T10:59:14.715Z,9.278367
2023-04-08T11:00:14.714Z,9.278148
2023-04-08T11:01:14.798Z,9.278205
2023-04-08T11:02:14.863Z,9.278349
2023-04-08T11:03:15.821Z,9.278349
2023-04-08T11:04:14.738Z,9.278283
2023-04-08T11:05:14.641Z,9.278397
2023-04-08T11:06:14.660Z,9.278420
2023-04-08T11:07:14.600Z,9.278392
2023-04-08T11:08:14.573Z,9.278412
2023-04-08T11:09:14.593Z,9.278396
2023-04-08T11:10:14.693Z,9.278365
2023-04-08T11:11:14.568Z,9.278346
2023-04-08T11:12:14.506Z,9.278329
2023-04-08T11:13:14.485Z,9.278381
2023-04-08T11:14:14.464Z,9.278321
2023-04-08T11:15:14.454Z,9.278395
2023-04-08T11:16:18.323Z,9.278295
2023-04-08T11:17:15.431Z,9.278440
2023-04-08T11:18:14.419Z,9.278362
2023-04-08T11:19:14.393Z,9.278378
2023-04-08T11:20:14.413Z,9.278246
2023-04-08T11:21:14.395Z,9.278383
2023-04-08T11:22:14.344Z,9.278356
2023-04-08T11:23:14.347Z,9.278350
2023-04-08T11:24:14.306Z,9.278285
2023-04-08T11:25:14.300Z,9.278358
2023-04-08T11:26:14.293Z,9.278249
2023-04-08T11:27:14.252Z,9.278305
2023-04-08T11:28:14.237Z,9.278309
2023-04-08T11:29:14.311Z,9.278347
2023-04-08T11:30:14.253Z,9.278338
2023-04-08T11:31:14.306Z,9.278371
2023-04-08T11:32:14.159Z,9.278483
2023-04-08T11:33:14.164Z,9.278438
2023-04-08T11:34:14.136Z,9.278402
2023-04-08T11:35:14.128Z,9.278328
2023-04-08T11:36:14.158Z,9.278317
2023-04-08T11:37:14.084Z,9.278351
2023-04-08T11:38:14.065Z,9.278360
2023-04-08T11:39:14.061Z,9.278282
2023-04-08T11:40:14.121Z,9.278357
2023-04-08T11:41:14.056Z,9.278359
2023-04-08T11:42:13.997Z,9.278310
2023-04-08T11:43:13.996Z,9.278313
2023-04-08T11:44:13.985Z,9.278403